createdAt,value
2023-05-22T00:02:00.240Z,99368.80
2023-05-22T00:04:30.194Z,99365.00
2023-05-22T00:06:56.858Z,99366.00
2023-05-22T00:09:28.971Z,99361.00
2023-05-22T00:11:55.516Z,99360.60
2023-05-22T00:14:22.026Z,99362.80
2023-05-22T00:16:48.577Z,99361.20
2023-05-22T00:19:19.094Z,99357.00
2023-05-22T00:21:47.022Z,99355.20
2023-05-22T00:24:13.485Z,99354.20
2023-05-22T00:26:39.998Z,99353.80
2023-05-22T00:29:06.468Z,99351.40
2023-05-22T00:31:33.197Z,99351.00
2023-05-22T00:33:59.990Z,99350.00
2023-05-22T00:36:26.691Z,99344.00
2023-05-22T00:38:53.205Z,99343.40
2023-05-22T00:41:19.957Z,99342.00
2023-05-22T00:43:47.795Z,99340.40
2023-05-22T00:46:14.537Z,99338.00
2023-05-22T00:48:41.188Z,99342.40
2023-05-22T00:51:08.708Z,99334.60
2023-05-22T00:53:37.071Z,99335.80
2023-05-22T00:56:04.039Z,99337.80
2023-05-22T00:58:30.665Z,99335.00
2023-05-22T01:00:57.352Z,99337.20
2023-05-22T01:03:26.964Z,99337.60
2023-05-22T01:05:55.738Z,99336.20
2023-05-22T01:08:22.537Z,99331.40
2023-05-22T01:10:58.983Z,99337.20
2023-05-22T01:13:51.813Z,99337.60
2023-05-22T01:16:40.456Z,99341.80
2023-05-22T01:19:39.526Z,99341.00
2023-05-22T01:22:21.488Z,99341.80
2023-05-22T01:25:21.100Z,99335.60
2023-05-22T01:28:11.974Z,99339.60
2023-05-22T01:31:00.543Z,99336.00
2023-05-22T01:33:33.461Z,99336.40
2023-05-22T01:36:02.618Z,99339.20
2023-05-22T01:38:31.251Z,99339.80
2023-05-22T01:40:58.549Z,99337.00
2023-05-22T01:43:25.322Z,99336.20
2023-05-22T01:45:51.806Z,99336.40
2023-05-22T01:48:18.406Z,99332.20
2023-05-22T01:50:48.464Z,99334.20
2023-05-22T01:53:35.573Z,99336.80
2023-05-22T01:56:34.726Z,99332.60
2023-05-22T01:59:21.250Z,99332.00
2023-05-22T02:01:52.431Z,99330.80
2023-05-22T02:04:23.472Z,99326.80
2023-05-22T02:06:53.551Z,99331.20
2023-05-22T02:09:25.776Z,99330.00
2023-05-22T02:11:52.565Z,99328.60
2023-05-22T02:14:20.217Z,99330.80
2023-05-22T02:16:47.828Z,99329.20
2023-05-22T02:19:15.339Z,99326.80
2023-05-22T02:21:42.151Z,99329.20
2023-05-22T02:24:08.880Z,99325.00
2023-05-22T02:26:35.701Z,99327.20
2023-05-22T02:29:02.133Z,99328.20
2023-05-22T02:31:29.354Z,99326.40
2023-05-22T02:33:56.501Z,99324.80
2023-05-22T02:36:23.015Z,99322.40
2023-05-22T02:38:49.504Z,99320.80
2023-05-22T02:41:15.937Z,99320.40
2023-05-22T02:43:42.417Z,99316.80
2023-05-22T02:46:08.860Z,99322.00
2023-05-22T02:48:35.629Z,99317.40
2023-05-22T02:51:02.115Z,99313.00
2023-05-22T02:53:28.568Z,99316.80
2023-05-22T02:55:58.898Z,99320.60
2023-05-22T02:58:25.603Z,99314.00
2023-05-22T03:00:53.077Z,99318.60
2023-05-22T03:03:19.631Z,99315.20
2023-05-22T03:05:46.669Z,99314.20
2023-05-22T03:08:15.439Z,99317.60
2023-05-22T03:10:42.365Z,99320.00
2023-05-22T03:13:08.795Z,99318.80
2023-05-22T03:15:35.449Z,99316.60
2023-05-22T03:18:02.301Z,99319.60
2023-05-22T03:20:28.910Z,99316.40
2023-05-22T03:22:55.527Z,99317.20
2023-05-22T03:25:22.113Z,99311.40
2023-05-22T03:27:48.627Z,99307.60
2023-05-22T03:30:15.850Z,99311.20
2023-05-22T03:32:42.277Z,99311.60
2023-05-22T03:35:09.876Z,99309.20
2023-05-22T03:37:36.437Z,99309.40
2023-05-22T03:40:04.934Z,99310.60
2023-05-22T03:42:31.509Z,99310.40
2023-05-22T03:44:57.927Z,99304.80
2023-05-22T03:47:24.438Z,99302.80
2023-05-22T03:49:51.010Z,99299.00
2023-05-22T03:52:17.508Z,99311.40
2023-05-22T03:54:43.949Z,99305.20
2023-05-22T03:57:10.636Z,99312.00
2023-05-22T03:59:37.239Z,99310.60
2023-05-22T04:02:04.235Z,99306.60
2023-05-22T04:04:32.383Z,99307.60
2023-05-22T04:06:59.318Z,99305.40
2023-05-22T04:09:32.305Z,99301.00
2023-05-22T04:11:58.755Z,99297.00
2023-05-22T04:14:26.271Z,99297.80
2023-05-22T04:16:53.203Z,99292.40
2023-05-22T04:19:20.215Z,99298.20
2023-05-22T04:21:48.858Z,99295.40
2023-05-22T04:24:15.344Z,99286.80
2023-05-22T04:26:42.694Z,99288.40
2023-05-22T04:29:10.674Z,99289.60
2023-05-22T04:31:37.548Z,99289.20
2023-05-22T04:34:05.265Z,99287.00
2023-05-22T04:36:31.936Z,99284.40
2023-05-22T04:39:00.495Z,99286.40
2023-05-22T04:41:27.092Z,99282.00
2023-05-22T04:43:54.583Z,99280.00
2023-05-22T04:49:12.151Z,99280.20
2023-05-22T04:51:38.636Z,99279.40
2023-05-22T04:54:05.468Z,99279.20
2023-05-22T04:56:36.940Z,99277.80
2023-05-22T04:59:04.846Z,99276.00
2023-05-22T05:01:33.296Z,99276.40
2023-05-22T05:04:00.861Z,99277.20
2023-05-22T05:06:27.516Z,99282.40
2023-05-22T05:08:57.157Z,99279.20
2023-05-22T05:11:23.704Z,99274.00
2023-05-22T05:13:50.217Z,99278.20
2023-05-22T05:16:16.696Z,99276.20
2023-05-22T05:18:43.720Z,99277.60
2023-05-22T05:21:10.783Z,99276.40
2023-05-22T05:23:37.555Z,99284.00
2023-05-22T05:26:04.150Z,99282.40
2023-05-22T05:28:30.662Z,99286.40
2023-05-22T05:30:58.073Z,99284.60
2023-05-22T05:33:24.617Z,99283.60
2023-05-22T05:35:52.667Z,99288.20
2023-05-22T05:38:20.365Z,99288.60
2023-05-22T05:40:47.367Z,99287.80
2023-05-22T05:43:16.898Z,99292.80
2023-05-22T05:45:43.972Z,99289.60
2023-05-22T05:48:12.049Z,99288.80
2023-05-22T05:50:39.418Z,99289.40
2023-05-22T05:53:06.247Z,99288.40
2023-05-22T05:55:34.441Z,99288.40
2023-05-22T05:58:01.153Z,99289.20
2023-05-22T06:00:27.632Z,99292.00
2023-05-22T06:02:54.248Z,99293.20
2023-05-22T06:05:24.541Z,99290.20
2023-05-22T06:07:51.925Z,99292.00
2023-05-22T06:10:18.482Z,99288.00
2023-05-22T06:12:44.950Z,99282.80
2023-05-22T06:15:13.739Z,99287.80
2023-05-22T06:17:40.909Z,99286.40
2023-05-22T06:20:09.284Z,99276.00
2023-05-22T06:22:40.093Z,99274.80
2023-05-22T06:25:06.923Z,99275.00
2023-05-22T06:27:33.485Z,99273.20
2023-05-22T06:30:07.657Z,99272.40
2023-05-22T06:32:34.253Z,99277.40
2023-05-22T06:35:01.591Z,99268.20
2023-05-22T06:37:28.047Z,99268.00
2023-05-22T06:39:54.536Z,99265.00
2023-05-22T06:42:21.350Z,99268.40
2023-05-22T06:44:48.457Z,99269.80
2023-05-22T06:47:14.929Z,99271.00
2023-05-22T06:49:41.621Z,99270.60
2023-05-22T06:52:08.216Z,99264.60
2023-05-22T06:54:34.640Z,99262.40
2023-05-22T06:57:04.431Z,99259.80
2023-05-22T06:59:30.960Z,99254.40
2023-05-22T07:01:57.901Z,99257.60
2023-05-22T07:04:24.331Z,99256.80
2023-05-22T07:06:50.809Z,99261.20
2023-05-22T07:09:19.957Z,99260.20
2023-05-22T07:11:47.058Z,99254.80
2023-05-22T07:14:14.326Z,99252.40
2023-05-22T07:16:42.411Z,99251.80
2023-05-22T07:19:10.411Z,99248.60
2023-05-22T07:21:36.944Z,99254.00
2023-05-22T07:24:09.190Z,99257.80
2023-05-22T07:26:38.462Z,99253.00
2023-05-22T07:29:05.476Z,99252.20
2023-05-22T07:31:34.110Z,99254.40
2023-05-22T07:34:00.697Z,99253.40
2023-05-22T07:36:31.831Z,99244.40
2023-05-22T07:38:58.684Z,99248.00
2023-05-22T07:41:31.101Z,99245.20
2023-05-22T07:43:57.512Z,99245.40
2023-05-22T07:46:23.999Z,99244.40
2023-05-22T07:48:56.874Z,99238.40
2023-05-22T07:51:23.442Z,99242.60
2023-05-22T07:53:55.765Z,99242.00
2023-05-22T07:56:22.190Z,99242.60
2023-05-22T07:58:48.603Z,99237.20
2023-05-22T08:01:27.460Z,99234.40
2023-05-22T08:03:54.276Z,99235.00
2023-05-22T08:06:23.136Z,99237.60
2023-05-22T08:08:52.927Z,99239.00
2023-05-22T08:11:19.377Z,99235.00
2023-05-22T08:13:46.366Z,99239.60
2023-05-22T08:16:12.959Z,99236.60
2023-05-22T08:18:45.574Z,99233.80
2023-05-22T08:21:12.057Z,99230.40
2023-05-22T08:23:38.646Z,99234.60
2023-05-22T08:26:08.688Z,99236.60
2023-05-22T08:28:35.703Z,99241.80
2023-05-22T08:31:02.657Z,99245.00
2023-05-22T08:33:29.109Z,99244.20
2023-05-22T08:35:55.599Z,99241.80
2023-05-22T08:38:22.448Z,99235.60
2023-05-22T08:40:52.933Z,99236.80
2023-05-22T08:43:21.388Z,99241.80
2023-05-22T08:46:03.712Z,99235.60
2023-05-22T08:48:35.519Z,99234.40
2023-05-22T08:51:05.638Z,99229.00
2023-05-22T08:53:43.921Z,99231.40
2023-05-22T08:56:10.543Z,99229.40
2023-05-22T08:58:38.069Z,99230.00
2023-05-22T09:01:08.973Z,99228.80
2023-05-22T09:03:36.746Z,99229.00
2023-05-22T09:06:03.543Z,99224.60
2023-05-22T09:08:30.123Z,99221.20
2023-05-22T09:10:56.640Z,99222.60
2023-05-22T09:13:29.439Z,99228.80
2023-05-22T09:16:11.726Z,99226.60
2023-05-22T09:18:39.699Z,99215.20
2023-05-22T09:21:21.579Z,99215.80
2023-05-22T09:24:01.878Z,99213.60
2023-05-22T09:26:29.514Z,99215.20
2023-05-22T09:28:58.973Z,99207.20
2023-05-22T09:31:32.904Z,99213.60
2023-05-22T09:33:59.847Z,99209.80
2023-05-22T09:36:33.321Z,99215.40
2023-05-22T09:39:01.862Z,99217.00
2023-05-22T09:41:39.147Z,99220.00
2023-05-22T09:44:21.157Z,99215.60
2023-05-22T09:46:48.138Z,99207.20
2023-05-22T09:49:16.706Z,99204.40
2023-05-22T09:51:48.336Z,99209.40
2023-05-22T09:54:17.592Z,99206.40
2023-05-22T09:56:47.894Z,99199.20
2023-05-22T09:59:21.911Z,99202.80
2023-05-22T10:01:51.731Z,99199.60
2023-05-22T10:04:23.254Z,99199.80
2023-05-22T10:06:55.313Z,99203.00
2023-05-22T10:09:26.100Z,99197.00
2023-05-22T10:12:05.613Z,99196.40
2023-05-22T10:14:35.595Z,99195.80
2023-05-22T10:17:04.755Z,99189.60
2023-05-22T10:19:33.159Z,99197.00
2023-05-22T10:22:04.888Z,99198.20
2023-05-22T10:24:31.958Z,99195.80
2023-05-22T10:26:59.356Z,99196.80
2023-05-22T10:29:41.108Z,99195.00
2023-05-22T10:32:35.807Z,99186.80
2023-05-22T10:35:21.676Z,99192.60
2023-05-22T10:38:24.219Z,99189.80
2023-05-22T10:40:51.939Z,99180.60
2023-05-22T10:43:18.526Z,99183.00
2023-05-22T10:45:52.727Z,99183.40
2023-05-22T10:48:23.170Z,99177.60
2023-05-22T10:50:53.409Z,99174.40
2023-05-22T10:53:22.777Z,99175.60
2023-05-22T10:56:02.690Z,99171.80
2023-05-22T10:58:38.835Z,99169.20
2023-05-22T11:01:12.743Z,99171.60
2023-05-22T11:04:05.140Z,99165.80
2023-05-22T11:06:48.899Z,99157.60
2023-05-22T11:09:51.764Z,99156.60
2023-05-22T11:12:25.193Z,99157.60
2023-05-22T11:15:05.359Z,99161.40
2023-05-22T11:17:45.248Z,99149.80
2023-05-22T11:20:21.087Z,99145.00
2023-05-22T11:22:56.959Z,99145.80
2023-05-22T11:25:28.908Z,99142.40
2023-05-22T11:27:56.197Z,99143.00
2023-05-22T11:30:28.657Z,99143.20
2023-05-22T11:32:55.138Z,99140.60
2023-05-22T11:35:25.249Z,99131.40
2023-05-22T11:37:54.733Z,99138.40
2023-05-22T11:40:26.618Z,99134.80
2023-05-22T11:42:53.866Z,99129.80
2023-05-22T11:45:21.519Z,99134.00
2023-05-22T11:47:48.855Z,99135.00
2023-05-22T11:50:22.770Z,99132.80
2023-05-22T11:52:56.496Z,99129.60
2023-05-22T11:55:23.157Z,99128.20
2023-05-22T11:57:54.604Z,99133.20
2023-05-22T12:00:21.719Z,99129.60
2023-05-22T12:02:48.344Z,99125.60
2023-05-22T12:05:16.480Z,99123.60
2023-05-22T12:07:43.593Z,99123.20
2023-05-22T12:10:14.529Z,99123.20
2023-05-22T12:12:45.412Z,99121.40
2023-05-22T12:15:12.520Z,99121.40
2023-05-22T12:17:39.987Z,99122.80
2023-05-22T12:20:07.375Z,99122.60
2023-05-22T12:22:43.725Z,99119.60
2023-05-22T12:25:24.942Z,99118.00
2023-05-22T12:27:51.437Z,99117.40
2023-05-22T12:30:18.626Z,99110.40
2023-05-22T12:32:50.273Z,99112.60
2023-05-22T12:35:18.244Z,99115.00
2023-05-22T12:37:50.098Z,99110.80
2023-05-22T12:40:17.013Z,99110.40
2023-05-22T12:42:44.827Z,99104.00
2023-05-22T12:45:13.226Z,99105.40
2023-05-22T12:47:42.087Z,99107.40
2023-05-22T12:50:09.250Z,99101.60
2023-05-22T12:52:36.324Z,99095.00
2023-05-22T12:55:03.133Z,99089.00
2023-05-22T12:57:38.782Z,99096.00
2023-05-22T13:00:06.388Z,99092.40
2023-05-22T13:02:33.274Z,99089.00
2023-05-22T13:05:00.368Z,99087.80
2023-05-22T13:07:26.886Z,99091.20
2023-05-22T13:10:04.061Z,99084.80
2023-05-22T13:12:32.359Z,99081.80
2023-05-22T13:14:59.869Z,99080.60
2023-05-22T13:17:27.655Z,99080.80
2023-05-22T13:19:58.209Z,99072.00
2023-05-22T13:22:25.484Z,99072.80
2023-05-22T13:24:52.027Z,99076.60
2023-05-22T13:27:18.921Z,99077.20
2023-05-22T13:29:45.538Z,99075.40
2023-05-22T13:32:13.912Z,99069.00
2023-05-22T13:34:43.242Z,99067.00
2023-05-22T13:37:10.065Z,99066.80
2023-05-22T13:39:36.940Z,99070.20
2023-05-22T13:42:03.608Z,99067.20
2023-05-22T13:44:30.056Z,99070.80
2023-05-22T13:46:56.615Z,99066.80
2023-05-22T13:49:23.195Z,99068.00
2023-05-22T13:51:49.862Z,99058.80
2023-05-22T13:54:16.663Z,99053.20
2023-05-22T13:56:43.102Z,99052.20
2023-05-22T13:59:09.635Z,99051.60
2023-05-22T14:01:36.311Z,99049.60
2023-05-22T14:04:03.219Z,99040.60
2023-05-22T14:06:29.765Z,99036.80
2023-05-22T14:08:56.441Z,99038.00
2023-05-22T14:11:23.080Z,99043.20
2023-05-22T14:13:49.998Z,99036.20
2023-05-22T14:16:16.539Z,99031.00
2023-05-22T14:18:43.040Z,99030.40
2023-05-22T14:21:10.122Z,99028.20
2023-05-22T14:23:36.734Z,99026.60
2023-05-22T14:26:03.387Z,99023.20
2023-05-22T14:28:31.678Z,99024.40
2023-05-22T14:31:02.395Z,99021.20
2023-05-22T14:33:31.450Z,99016.20
2023-05-22T14:35:58.301Z,99022.20
2023-05-22T14:38:26.095Z,99023.20
2023-05-22T14:40:52.668Z,99020.40
2023-05-22T14:43:19.093Z,99017.40
2023-05-22T14:45:45.881Z,99020.40
2023-05-22T14:48:12.646Z,99020.00
2023-05-22T14:50:45.022Z,99017.80
2023-05-22T14:53:12.362Z,99017.40
2023-05-22T14:55:38.969Z,99015.60
2023-05-22T14:58:05.815Z,99014.60
2023-05-22T15:00:32.673Z,99015.80
2023-05-22T15:02:59.426Z,99013.40
2023-05-22T15:05:26.910Z,99014.80
2023-05-22T15:07:53.456Z,99012.40
2023-05-22T15:10:19.881Z,99011.60
2023-05-22T15:12:46.379Z,99005.40
2023-05-22T15:15:12.820Z,99007.20
2023-05-22T15:17:42.416Z,99005.60
2023-05-22T15:20:10.841Z,99006.60
2023-05-22T15:22:37.285Z,99005.40
2023-05-22T15:25:15.564Z,99001.20
2023-05-22T15:27:42.916Z,99006.40
2023-05-22T15:30:09.945Z,98997.20
2023-05-22T15:32:37.504Z,98995.40
2023-05-22T15:35:05.666Z,98994.40
2023-05-22T15:37:33.699Z,98993.80
2023-05-22T15:40:02.110Z,98985.40
2023-05-22T15:42:29.018Z,98978.00
2023-05-22T15:44:55.953Z,98981.20
2023-05-22T15:47:22.467Z,98976.00
2023-05-22T15:49:49.138Z,98972.60
2023-05-22T15:52:17.050Z,98969.80
2023-05-22T15:54:43.819Z,98970.80
2023-05-22T15:57:10.406Z,98969.20
2023-05-22T15:59:36.890Z,98977.20
2023-05-22T16:02:03.556Z,98968.60
2023-05-22T16:04:31.318Z,98968.40
2023-05-22T16:06:57.809Z,98969.80
2023-05-22T16:09:33.168Z,98969.40
2023-05-22T16:11:59.572Z,98963.40
2023-05-22T16:14:25.961Z,98958.00
2023-05-22T16:16:52.571Z,98962.60
2023-05-22T16:19:19.180Z,98962.20
2023-05-22T16:21:45.815Z,98958.40
2023-05-22T16:24:12.549Z,98958.80
2023-05-22T16:26:39.233Z,98957.60
2023-05-22T16:29:08.991Z,98960.00
2023-05-22T16:31:35.934Z,98959.20
2023-05-22T16:34:06.317Z,98958.00
2023-05-22T16:36:32.939Z,98959.40
2023-05-22T16:38:59.566Z,98956.40
2023-05-22T16:41:26.810Z,98956.80
2023-05-22T16:43:56.893Z,98955.20
2023-05-22T16:46:23.439Z,98961.80
2023-05-22T16:48:53.407Z,98960.40
2023-05-22T16:51:19.855Z,98963.40
2023-05-22T16:53:47.130Z,98963.00
2023-05-22T16:56:14.472Z,98963.60
2023-05-22T16:58:41.064Z,98968.00
2023-05-22T17:01:07.833Z,98968.20
2023-05-22T17:03:34.834Z,98967.00
2023-05-22T17:06:03.009Z,98969.60
2023-05-22T17:08:30.200Z,98967.80
2023-05-22T17:10:59.750Z,98971.80
2023-05-22T17:13:26.192Z,98972.20
2023-05-22T17:15:57.561Z,98973.80
2023-05-22T17:18:24.202Z,98979.00
2023-05-22T17:20:53.770Z,98976.40
2023-05-22T17:23:27.237Z,98974.00
2023-05-22T17:25:55.156Z,98973.40
2023-05-22T17:28:21.628Z,98967.60
2023-05-22T17:30:48.236Z,98970.80
2023-05-22T17:33:14.961Z,98964.60
2023-05-22T17:35:50.797Z,98971.40
2023-05-22T17:38:17.270Z,98973.00
2023-05-22T17:40:46.107Z,98970.40
2023-05-22T17:43:13.843Z,98969.20
2023-05-22T17:45:40.741Z,98967.20
2023-05-22T17:48:11.331Z,98965.20
2023-05-22T17:50:39.597Z,98963.00
2023-05-22T17:53:06.557Z,98962.80
2023-05-22T17:55:33.069Z,98961.60
2023-05-22T17:57:59.688Z,98966.60
2023-05-22T18:00:26.219Z,98967.60
2023-05-22T18:02:52.768Z,98966.60
2023-05-22T18:05:19.253Z,98965.40
2023-05-22T18:07:45.947Z,98965.00
2023-05-22T18:10:12.405Z,98968.40
2023-05-22T18:12:38.886Z,98965.20
2023-05-22T18:15:12.413Z,98970.20
2023-05-22T18:17:39.045Z,98971.60
2023-05-22T18:20:07.738Z,98973.60
2023-05-22T18:22:37.189Z,98975.80
2023-05-22T18:25:04.035Z,98974.00
2023-05-22T18:27:31.295Z,98977.00
2023-05-22T18:29:58.280Z,98980.00
2023-05-22T18:32:24.883Z,98981.00
2023-05-22T18:34:52.012Z,98983.60
2023-05-22T18:37:19.535Z,98981.60
2023-05-22T18:39:47.497Z,98981.20
2023-05-22T18:42:14.974Z,98985.40
2023-05-22T18:44:42.123Z,98982.40
2023-05-22T18:47:08.694Z,98987.60
2023-05-22T18:49:35.395Z,98985.80
2023-05-22T18:52:01.832Z,98991.40
2023-05-22T18:54:28.258Z,98992.00
2023-05-22T18:56:54.790Z,98994.00
2023-05-22T18:59:21.176Z,98992.00
2023-05-22T19:01:47.675Z,98994.00
2023-05-22T19:04:14.216Z,98996.40
2023-05-22T19:06:41.959Z,98992.80
2023-05-22T19:09:12.437Z,98994.80
2023-05-22T19:11:38.914Z,98990.60
2023-05-22T19:14:05.370Z,98993.40
2023-05-22T19:16:31.909Z,98992.20
2023-05-22T19:18:58.433Z,98991.60
2023-05-22T19:21:26.271Z,98998.40
2023-05-22T19:23:52.684Z,98998.40
2023-05-22T19:26:19.234Z,98998.00
2023-05-22T19:28:45.900Z,98994.20
2023-05-22T19:31:12.324Z,98990.60
2023-05-22T19:33:38.752Z,98990.00
2023-05-22T19:36:06.638Z,98994.60
2023-05-22T19:38:33.329Z,98988.40
2023-05-22T19:40:59.762Z,98990.60
2023-05-22T19:43:26.377Z,98992.40
2023-05-22T19:45:52.979Z,98985.20
2023-05-22T19:48:19.483Z,98986.00
2023-05-22T19:50:45.858Z,98986.40
2023-05-22T19:53:12.248Z,98990.60
2023-05-22T19:55:38.645Z,98992.80
2023-05-22T19:58:05.251Z,98991.40
2023-05-22T20:00:31.878Z,98993.80
2023-05-22T20:02:58.353Z,98990.40
2023-05-22T20:05:25.860Z,98988.60
2023-05-22T20:07:52.423Z,98989.80
2023-05-22T20:10:19.006Z,98991.40
2023-05-22T20:12:45.881Z,98989.80
2023-05-22T20:15:14.761Z,98989.40
2023-05-22T20:17:42.533Z,98982.00
2023-05-22T20:20:09.757Z,98980.40
2023-05-22T20:22:36.259Z,98977.80
2023-05-22T20:25:05.108Z,98972.00
2023-05-22T20:27:31.770Z,98976.80
2023-05-22T20:29:59.945Z,98976.80
2023-05-22T20:32:26.810Z,98971.80
2023-05-22T20:34:55.196Z,98968.20
2023-05-22T20:37:22.248Z,98968.60
2023-05-22T20:39:50.006Z,98968.80
2023-05-22T20:42:19.839Z,98966.80
2023-05-22T20:44:46.300Z,98970.40
2023-05-22T20:47:12.853Z,98965.40
2023-05-22T20:49:41.303Z,98968.60
2023-05-22T20:52:09.913Z,98966.60
2023-05-22T20:54:36.470Z,98966.80
2023-05-22T20:57:03.327Z,98968.80
2023-05-22T20:59:30.119Z,98962.80
2023-05-22T21:01:57.829Z,98961.20
2023-05-22T21:04:25.875Z,98959.40
2023-05-22T21:06:52.367Z,98957.40
2023-05-22T21:09:18.849Z,98954.60
2023-05-22T21:11:45.389Z,98961.40
2023-05-22T21:14:11.951Z,98961.20
2023-05-22T21:16:39.555Z,98965.80
2023-05-22T21:19:07.163Z,98967.80
2023-05-22T21:21:33.843Z,98969.20
2023-05-22T21:24:00.286Z,98964.60
2023-05-22T21:26:27.394Z,98964.80
2023-05-22T21:28:54.592Z,98964.60
2023-05-22T21:31:21.097Z,98962.00
2023-05-22T21:33:47.609Z,98963.80
2023-05-22T21:36:14.100Z,98965.40
2023-05-22T21:38:40.593Z,98965.40
2023-05-22T21:41:07.093Z,98966.60
2023-05-22T21:43:33.488Z,98973.00
2023-05-22T21:46:00.041Z,98974.60
2023-05-22T21:48:26.603Z,98970.40
2023-05-22T21:50:53.010Z,98972.60
2023-05-22T21:53:21.239Z,98973.40
2023-05-22T21:55:47.706Z,98975.60
2023-05-22T21:58:14.234Z,98972.80
2023-05-22T22:00:41.157Z,98976.00
2023-05-22T22:03:08.242Z,98975.40
2023-05-22T22:05:37.594Z,98976.80
2023-05-22T22:08:04.898Z,98979.00
2023-05-22T22:10:31.893Z,98980.00
2023-05-22T22:12:58.297Z,98980.00
2023-05-22T22:15:24.695Z,98974.60
2023-05-22T22:17:52.198Z,98970.20
2023-05-22T22:20:24.795Z,98971.60
2023-05-22T22:22:56.916Z,98969.00
2023-05-22T22:25:23.329Z,98966.80
2023-05-22T22:27:49.826Z,98966.20
2023-05-22T22:30:16.366Z,98969.40
2023-05-22T22:32:42.805Z,98963.20
2023-05-22T22:35:10.259Z,98965.00
2023-05-22T22:37:37.542Z,98960.20
2023-05-22T22:40:05.540Z,98954.60
2023-05-22T22:42:34.879Z,98956.40
2023-05-22T22:45:01.811Z,98957.40
2023-05-22T22:47:28.346Z,98960.20
2023-05-22T22:49:57.085Z,98953.00
2023-05-22T22:52:24.693Z,98950.40
2023-05-22T22:54:51.391Z,98950.40
2023-05-22T22:57:17.984Z,98949.40
2023-05-22T22:59:44.377Z,98943.40
2023-05-22T23:02:10.770Z,98943.00
2023-05-22T23:04:37.387Z,98945.80
2023-05-22T23:07:04.176Z,98939.20
2023-05-22T23:09:30.560Z,98939.60
2023-05-22T23:11:56.977Z,98935.60
2023-05-22T23:14:24.740Z,98935.60
2023-05-22T23:16:51.207Z,98928.60
2023-05-22T23:19:17.642Z,98930.40
2023-05-22T23:21:44.507Z,98923.00
2023-05-22T23:24:10.984Z,98919.40
2023-05-22T23:26:37.434Z,98915.20
2023-05-22T23:29:03.866Z,98908.60
2023-05-22T23:31:31.211Z,98909.80
2023-05-22T23:33:58.545Z,98906.20
2023-05-22T23:36:25.609Z,98906.00
2023-05-22T23:38:52.161Z,98906.60
2023-05-22T23:41:18.838Z,98901.00
2023-05-22T23:43:46.191Z,98896.40
2023-05-22T23:46:13.972Z,98900.40
2023-05-22T23:48:41.652Z,98899.00
2023-05-22T23:51:14.337Z,98898.20
2023-05-22T23:53:42.378Z,98901.20
2023-05-22T23:56:10.160Z,98901.60
2023-05-22T23:58:39.756Z,98897.40
